Time;durP1;ratioP1;P1;durP2;ratioP2;P2;SDS_P1;SDS_P2;PMS_P1;PMS_P2;Temp;Humidity;BMP_temperature;BMP_pressure;BME280_temperature;BME280_humidity;BME280_pressure;Samples;Min_cycle;Max_cycle;Signal;HPM_P1;HPM_P2
2022/06/25 00:01:53;;;;;;;1999.90;999.90;;;20.20;99.90;;;;;;4991153;28;20175;-66
2022/06/25 00:07:03;;;;;;;1999.90;999.90;;;20.20;99.90;;;;;;4994368;28;20695;-66
2022/06/25 00:09:29;;;;;;;1571.70;781.38;;;20.20;99.90;;;;;;5006171;28;20198;-66
2022/06/25 00:14:39;;;;;;;1999.90;999.90;;;20.10;99.90;;;;;;4991864;28;20199;-66
2022/06/25 00:17:05;;;;;;;1999.90;999.90;;;19.90;99.90;;;;;;5009102;28;20191;-66
2022/06/25 00:19:31;;;;;;;1174.57;579.58;;;19.80;99.90;;;;;;5013795;28;20184;-67
2022/06/25 00:21:57;;;;;;;1999.90;999.90;;;19.90;99.90;;;;;;4997386;28;20239;-69
2022/06/25 00:24:22;;;;;;;1999.90;999.90;;;19.80;99.90;;;;;;5012863;28;20187;-66
2022/06/25 00:26:48;;;;;;;1999.90;999.90;;;19.80;99.90;;;;;;5006591;28;20236;-67
2022/06/25 00:29:14;;;;;;;1999.90;999.90;;;19.80;99.90;;;;;;5005331;28;20183;-67
2022/06/25 00:31:40;;;;;;;1999.90;999.90;;;19.90;99.90;;;;;;4989367;28;20192;-67
2022/06/25 00:34:06;;;;;;;1999.90;999.90;;;19.80;99.90;;;;;;5012856;28;20272;-67
2022/06/25 00:36:31;;;;;;;1999.90;999.90;;;19.90;99.90;;;;;;4996389;28;20194;-67
2022/06/25 00:38:57;;;;;;;1999.90;999.90;;;19.80;99.90;;;;;;5003521;28;20587;-68
2022/06/25 00:41:23;;;;;;;1999.90;999.90;;;19.90;99.90;;;;;;5004942;28;20192;-67
2022/06/25 00:43:49;;;;;;;1999.90;999.90;;;19.90;99.90;;;;;;5012805;28;20182;-68
2022/06/25 00:46:15;;;;;;;1999.90;999.90;;;20.00;99.90;;;;;;5017586;28;20552;-68
2022/06/25 00:48:41;;;;;;;1999.90;999.90;;;20.00;99.90;;;;;;5023176;28;20218;-67
2022/06/25 00:51:11;;;;;;;1999.90;999.90;;;19.80;99.90;;;;;;4994396;28;20194;-67
2022/06/25 00:53:41;;;;;;;1999.90;999.90;;;19.90;99.90;;;;;;5005164;28;20653;-67
2022/06/25 00:56:09;;;;;;;1999.90;999.90;;;19.90;99.90;;;;;;5015830;28;20180;-67
2022/06/25 00:58:38;;;;;;;1117.57;552.90;;;19.90;99.90;;;;;;5009372;28;20201;-72
2022/06/25 01:01:08;;;;;;;1999.90;999.90;;;19.80;99.90;;;;;;4992252;28;20621;-67
2022/06/25 01:03:34;;;;;;;1999.90;999.90;;;19.70;99.90;;;;;;5005771;28;21906;-67
2022/06/25 01:06:00;;;;;;;1999.90;999.90;;;19.70;99.90;;;;;;4987823;28;20198;-67
2022/06/25 01:08:26;;;;;;;1999.90;999.90;;;19.70;99.90;;;;;;4992293;28;20320;-67
2022/06/25 01:10:52;;;;;;;1999.90;999.90;;;19.70;99.90;;;;;;5012543;28;20218;-67
2022/06/25 01:13:21;;;;;;;1999.90;999.90;;;19.60;99.90;;;;;;4994551;28;20238;-68
2022/06/25 01:15:47;;;;;;;1999.90;999.90;;;19.60;99.90;;;;;;5029267;28;20183;-67
2022/06/25 01:18:19;;;;;;;1999.90;999.90;;;19.60;99.90;;;;;;5013393;28;20194;-67
2022/06/25 01:20:45;;;;;;;1999.90;999.90;;;19.50;99.90;;;;;;5024975;28;20260;-67
2022/06/25 01:23:12;;;;;;;1999.90;999.90;;;19.40;99.90;;;;;;4982371;28;20232;-67
2022/06/25 01:25:39;;;;;;;1999.90;999.90;;;19.50;99.90;;;;;;4997800;28;20274;-67
2022/06/25 01:28:05;;;;;;;1999.90;999.90;;;19.50;99.90;;;;;;5012404;28;20306;-68
2022/06/25 01:30:31;;;;;;;1999.90;999.90;;;19.40;99.90;;;;;;4999862;28;20548;-67
2022/06/25 01:32:57;;;;;;;1999.90;999.90;;;19.50;99.90;;;;;;5022045;28;20225;-67
2022/06/25 01:35:23;;;;;;;1999.90;999.90;;;19.50;99.90;;;;;;5017873;28;20577;-67
2022/06/25 01:37:48;;;;;;;1999.90;999.90;;;19.60;99.90;;;;;;4990409;28;20195;-67
2022/06/25 01:40:14;;;;;;;1999.90;999.90;;;19.50;99.90;;;;;;5026925;28;20257;-67
2022/06/25 01:42:58;;;;;;;1999.90;999.90;;;19.40;99.90;;;;;;4992093;28;20195;-68
2022/06/25 01:45:24;;;;;;;1999.90;999.90;;;19.50;99.90;;;;;;5000930;28;20563;-67
2022/06/25 01:47:50;;;;;;;1999.90;999.90;;;19.50;99.90;;;;;;4992033;28;20680;-67
2022/06/25 01:50:17;;;;;;;1999.90;999.90;;;19.40;99.90;;;;;;5004145;28;20191;-67
2022/06/25 01:52:43;;;;;;;1999.90;999.90;;;19.40;99.90;;;;;;5004140;28;20200;-67
2022/06/25 01:55:10;;;;;;;1999.90;999.90;;;19.30;99.90;;;;;;5001197;28;20275;-67
2022/06/25 01:57:36;;;;;;;1999.90;999.90;;;19.30;99.90;;;;;;5002615;28;20191;-67
2022/06/25 02:00:04;;;;;;;1999.90;999.90;;;19.40;99.90;;;;;;5008792;28;20193;-67
2022/06/25 02:02:30;;;;;;;1999.90;999.90;;;19.40;99.90;;;;;;4994398;28;20190;-67
2022/06/25 02:04:56;;;;;;;1999.90;999.90;;;19.40;99.90;;;;;;5012071;28;20191;-74
2022/06/25 02:07:21;;;;;;;1999.90;999.90;;;19.30;99.90;;;;;;4989286;28;20715;-67
2022/06/25 02:09:47;;;;;;;1999.90;999.90;;;19.30;99.90;;;;;;4996465;28;20199;-67
2022/06/25 02:12:13;;;;;;;1999.90;999.90;;;19.30;99.90;;;;;;5012832;28;20190;-67
2022/06/25 02:14:38;;;;;;;1999.90;999.90;;;19.30;99.90;;;;;;5015402;28;20559;-67
2022/06/25 02:17:04;;;;;;;1999.90;999.90;;;19.10;99.90;;;;;;4992848;28;20184;-68
2022/06/25 02:19:30;;;;;;;1999.90;999.90;;;19.10;99.90;;;;;;4980997;28;20218;-67
2022/06/25 02:21:56;;;;;;;1999.90;999.90;;;19.20;99.90;;;;;;5003214;28;20194;-67
2022/06/25 02:24:22;;;;;;;1999.90;999.90;;;19.20;99.90;;;;;;5012712;28;20187;-68
2022/06/25 02:26:47;;;;;;;1999.90;999.90;;;19.20;99.90;;;;;;5014890;28;20242;-67
2022/06/25 02:29:13;;;;;;;1999.90;999.90;;;19.20;99.90;;;;;;4998625;28;20194;-67
2022/06/25 02:31:39;;;;;;;1999.90;999.90;;;19.20;99.90;;;;;;5004494;28;20192;-70
2022/06/25 02:34:04;;;;;;;1999.90;999.90;;;19.20;99.90;;;;;;5011680;28;20191;-67
2022/06/25 02:36:30;;;;;;;1999.90;999.90;;;19.20;99.90;;;;;;5000802;28;20266;-67
2022/06/25 02:38:56;;;;;;;1999.90;999.90;;;19.20;99.90;;;;;;5006873;28;20192;-67
2022/06/25 02:41:21;;;;;;;1999.90;999.90;;;19.20;99.90;;;;;;4993161;28;20183;-68
2022/06/25 02:43:47;;;;;;;1999.90;999.90;;;19.20;99.90;;;;;;5014908;28;20576;-67
2022/06/25 02:46:13;;;;;;;1999.90;999.90;;;19.20;99.90;;;;;;4978295;28;20270;-67
2022/06/25 02:48:38;;;;;;;1999.90;999.90;;;19.20;99.90;;;;;;5013389;28;20223;-67
2022/06/25 02:51:04;;;;;;;1999.90;999.90;;;19.10;99.90;;;;;;5014577;28;20194;-68
2022/06/25 02:53:30;;;;;;;1999.90;999.90;;;19.20;99.90;;;;;;5013771;28;20195;-67
2022/06/25 02:58:55;;;;;;;1999.90;999.90;;;19.20;99.90;;;;;;5013697;28;20206;-68
2022/06/25 03:01:24;;;;;;;1999.90;999.90;;;19.30;99.90;;;;;;5014514;28;20203;-68
2022/06/25 03:03:51;;;;;;;1999.90;999.90;;;19.30;99.90;;;;;;5014118;28;20269;-68
2022/06/25 03:06:18;;;;;;;1999.90;999.90;;;19.20;99.90;;;;;;5014759;28;20180;-67
2022/06/25 03:08:44;;;;;;;1999.90;999.90;;;19.10;99.90;;;;;;5004703;28;20583;-68
2022/06/25 03:11:10;;;;;;;1999.90;999.90;;;19.10;99.90;;;;;;5014349;28;20187;-67
2022/06/25 03:13:36;;;;;;;1999.90;999.90;;;19.00;99.90;;;;;;4979553;28;20179;-68
2022/06/25 03:16:04;;;;;;;1999.90;999.90;;;19.10;99.90;;;;;;5016206;28;20189;-67
2022/06/25 03:18:29;;;;;;;1999.90;999.90;;;19.20;99.90;;;;;;4996597;28;20199;-68
2022/06/25 03:20:55;;;;;;;1999.90;999.90;;;19.10;99.90;;;;;;5007353;28;20191;-67
2022/06/25 03:23:22;;;;;;;1999.90;999.90;;;19.10;99.90;;;;;;5007630;28;20187;-67
2022/06/25 03:25:48;;;;;;;1999.90;999.90;;;19.10;99.90;;;;;;5011409;28;20181;-67
2022/06/25 03:28:14;;;;;;;1999.90;999.90;;;19.10;99.90;;;;;;5005538;28;20250;-67
2022/06/25 03:30:40;;;;;;;1999.90;999.90;;;19.00;99.90;;;;;;5013926;28;20215;-67
2022/06/25 03:33:06;;;;;;;1999.90;999.90;;;19.10;99.90;;;;;;4990579;28;20241;-67
2022/06/25 03:35:31;;;;;;;1999.90;999.90;;;19.10;99.90;;;;;;5013528;28;20603;-70
2022/06/25 03:37:57;;;;;;;1999.90;999.90;;;19.00;99.90;;;;;;4979912;28;20553;-67
2022/06/25 03:40:23;;;;;;;1999.90;999.90;;;19.10;99.90;;;;;;4984359;28;20645;-68
2022/06/25 03:42:49;;;;;;;1999.90;999.90;;;19.20;99.90;;;;;;5008722;28;20195;-71
2022/06/25 03:45:15;;;;;;;1999.90;999.90;;;19.30;99.90;;;;;;5012812;28;20274;-68
2022/06/25 03:47:41;;;;;;;1999.90;999.90;;;19.30;99.90;;;;;;5015670;28;20245;-67
2022/06/25 03:50:07;;;;;;;1999.90;999.90;;;19.40;99.90;;;;;;5025892;28;20233;-67
2022/06/25 03:52:33;;;;;;;1999.90;999.90;;;19.50;99.90;;;;;;5019473;28;20238;-67
2022/06/25 03:54:59;;;;;;;1999.90;999.90;;;19.50;99.90;;;;;;4993784;28;20211;-67
2022/06/25 03:57:25;;;;;;;1999.90;999.90;;;19.50;99.90;;;;;;4995403;28;20252;-67
2022/06/25 03:59:51;;;;;;;1999.90;999.90;;;19.50;99.90;;;;;;5010669;28;20188;-74
2022/06/25 04:02:17;;;;;;;1999.90;999.90;;;19.60;99.90;;;;;;5000904;28;20190;-67
2022/06/25 04:04:42;;;;;;;1999.90;999.90;;;19.60;99.90;;;;;;5013582;28;20187;-67
2022/06/25 04:07:08;;;;;;;1999.90;999.90;;;19.70;99.90;;;;;;4995354;28;20682;-67
2022/06/25 04:09:34;;;;;;;1999.90;999.90;;;19.70;99.90;;;;;;5013562;28;20577;-67
2022/06/25 04:11:59;;;;;;;1999.90;999.90;;;19.60;99.90;;;;;;4993609;28;20640;-67
2022/06/25 04:14:25;;;;;;;1999.90;999.90;;;19.70;99.90;;;;;;4986131;28;20640;-67
2022/06/25 04:16:51;;;;;;;1999.90;999.90;;;19.60;99.90;;;;;;5018791;28;20195;-70
2022/06/25 04:19:16;;;;;;;1999.90;999.90;;;19.60;99.90;;;;;;4997055;28;20192;-66
2022/06/25 04:21:47;;;;;;;1999.90;999.90;;;19.60;99.90;;;;;;5005318;28;20258;-66
2022/06/25 04:24:16;;;;;;;1999.90;999.90;;;19.80;99.90;;;;;;4978911;28;20596;-67
2022/06/25 04:26:42;;;;;;;1999.90;999.90;;;19.90;99.90;;;;;;4995331;28;20191;-67
2022/06/25 04:29:10;;;;;;;1999.90;999.90;;;19.80;99.90;;;;;;4983134;28;20191;-68
2022/06/25 04:31:37;;;;;;;1999.90;999.90;;;19.90;99.90;;;;;;5002586;28;20210;-67
2022/06/25 04:34:05;;;;;;;1999.90;999.90;;;20.00;99.90;;;;;;4996220;28;20187;-67
2022/06/25 04:36:31;;;;;;;1999.90;999.90;;;20.00;99.90;;;;;;5000656;28;20215;-69
2022/06/25 04:38:56;;;;;;;1999.90;999.90;;;20.00;99.90;;;;;;4995900;28;20196;-67
2022/06/25 04:41:28;;;;;;;1999.90;999.90;;;20.20;99.90;;;;;;5014533;28;20186;-70
2022/06/25 04:43:54;;;;;;;1999.90;999.90;;;20.20;99.90;;;;;;5014401;28;20242;-69
2022/06/25 04:46:19;;;;;;;1999.90;999.90;;;20.10;99.90;;;;;;4993957;28;20633;-68
2022/06/25 04:48:45;;;;;;;1999.90;999.90;;;20.00;99.90;;;;;;4996539;28;20219;-68
2022/06/25 04:51:11;;;;;;;1999.90;999.90;;;20.10;99.90;;;;;;5022820;28;20659;-65
2022/06/25 04:54:18;;;;;;;1999.90;999.90;;;20.20;99.90;;;;;;5005675;28;20550;-64
2022/06/25 04:56:27;;;;;;;1999.90;999.90;;;20.30;99.90;;;;;;4999697;28;20230;-66
2022/06/25 04:58:53;;;;;;;1999.90;999.90;;;20.20;99.90;;;;;;4998731;28;20197;-65
2022/06/25 05:01:20;;;;;;;1999.90;999.90;;;20.10;99.90;;;;;;5004689;28;20187;-65
2022/06/25 05:03:46;;;;;;;1999.90;999.90;;;20.00;99.90;;;;;;5010947;28;20241;-66
2022/06/25 05:06:12;;;;;;;1999.90;999.90;;;20.00;99.90;;;;;;5000501;28;20179;-65
2022/06/25 05:08:38;;;;;;;1999.90;999.90;;;19.90;99.90;;;;;;4993280;28;20218;-65
2022/06/25 05:11:07;;;;;;;1999.90;999.90;;;19.90;99.90;;;;;;5024099;28;20183;-65
2022/06/25 05:13:33;;;;;;;1999.90;999.90;;;19.90;99.90;;;;;;5011312;28;20192;-66
2022/06/25 05:15:59;;;;;;;1999.90;999.90;;;20.00;99.90;;;;;;5011782;28;20206;-65
2022/06/25 05:18:24;;;;;;;1999.90;999.90;;;20.00;99.90;;;;;;5006341;28;20186;-65
2022/06/25 05:20:50;;;;;;;1999.90;999.90;;;20.00;99.90;;;;;;5004428;28;20238;-65
2022/06/25 05:23:17;;;;;;;1999.90;999.90;;;19.90;99.90;;;;;;5009310;28;20199;-65
2022/06/25 05:25:42;;;;;;;1999.90;999.90;;;20.00;99.90;;;;;;5007384;28;20270;-66
2022/06/25 05:28:08;;;;;;;1999.90;999.90;;;20.00;99.90;;;;;;5010466;28;20299;-65
2022/06/25 05:30:35;;;;;;;1999.90;999.90;;;20.00;99.90;;;;;;5012271;28;20226;-66
2022/06/25 05:33:01;;;;;;;1999.90;999.90;;;19.90;99.90;;;;;;4994772;28;20230;-66
2022/06/25 05:35:27;;;;;;;1999.90;999.90;;;19.90;99.90;;;;;;4989607;28;20329;-65
2022/06/25 05:37:53;;;;;;;1999.90;999.90;;;19.90;99.90;;;;;;5011530;28;20194;-65
2022/06/25 05:40:18;;;;;;;1999.90;999.90;;;19.90;99.90;;;;;;5011574;28;20214;-65
2022/06/25 05:42:44;;;;;;;1999.90;999.90;;;20.00;99.90;;;;;;4993596;28;20198;-66
2022/06/25 05:45:10;;;;;;;1999.90;999.90;;;20.00;99.90;;;;;;4974879;28;20242;-66
2022/06/25 05:47:37;;;;;;;1999.90;999.90;;;20.20;99.90;;;;;;4990440;28;20316;-64
2022/06/25 05:50:03;;;;;;;1999.90;999.90;;;20.30;99.90;;;;;;5014706;28;20188;-66
2022/06/25 05:52:29;;;;;;;1999.90;999.90;;;20.40;99.90;;;;;;4995981;28;20301;-68
2022/06/25 05:54:55;;;;;;;1999.90;999.90;;;20.40;99.90;;;;;;5012997;28;20271;-66
2022/06/25 05:57:20;;;;;;;1999.90;999.90;;;20.40;99.90;;;;;;5012950;28;20192;-65
2022/06/25 05:59:46;;;;;;;1999.90;999.90;;;20.20;99.90;;;;;;4995139;28;20261;-66
2022/06/25 06:02:12;;;;;;;1999.90;999.90;;;20.10;99.90;;;;;;4994481;28;20184;-65
2022/06/25 06:04:38;;;;;;;1999.90;999.90;;;20.10;99.90;;;;;;5015425;28;20262;-66
2022/06/25 06:07:04;;;;;;;1999.90;999.90;;;20.10;99.90;;;;;;5015115;28;20568;-74
2022/06/25 06:09:32;;;;;;;1999.90;999.90;;;20.20;99.90;;;;;;4978881;28;20219;-73
2022/06/25 06:11:57;;;;;;;1999.90;999.90;;;20.30;99.90;;;;;;5012799;28;20187;-73
2022/06/25 06:14:23;;;;;;;1999.90;999.90;;;20.30;99.90;;;;;;5001390;28;20672;-75
2022/06/25 06:16:49;;;;;;;1999.90;999.90;;;20.30;99.90;;;;;;4987325;28;20559;-73
2022/06/25 06:19:15;;;;;;;1999.90;999.90;;;20.40;99.90;;;;;;4994905;28;20312;-68
2022/06/25 06:21:41;;;;;;;1999.90;999.90;;;20.30;99.90;;;;;;5016679;28;20639;-65
2022/06/25 06:24:07;;;;;;;1999.90;999.90;;;20.20;99.90;;;;;;5003086;28;20200;-72
2022/06/25 06:26:33;;;;;;;1999.90;999.90;;;20.40;99.90;;;;;;5010352;28;20670;-67
2022/06/25 06:28:59;;;;;;;1999.90;999.90;;;20.60;99.90;;;;;;5014484;28;20215;-66
2022/06/25 06:31:25;;;;;;;1999.90;999.90;;;20.70;99.90;;;;;;5014923;28;20187;-69
2022/06/25 06:33:50;;;;;;;1999.90;999.90;;;20.70;99.90;;;;;;5012115;28;20236;-67
2022/06/25 06:36:16;;;;;;;1999.90;999.90;;;20.60;99.90;;;;;;5013947;28;20188;-67
2022/06/25 06:38:42;;;;;;;1999.90;999.90;;;20.80;99.90;;;;;;5014481;28;20195;-70
2022/06/25 06:41:07;;;;;;;1999.90;999.90;;;20.70;99.90;;;;;;4997366;28;20724;-66
2022/06/25 06:43:33;;;;;;;1999.90;999.90;;;20.90;99.90;;;;;;4990808;28;20223;-70
2022/06/25 06:45:58;;;;;;;1999.90;999.90;;;21.30;99.90;;;;;;5014810;28;20266;-68
2022/06/25 06:48:24;;;;;;;1999.90;999.90;;;21.50;99.90;;;;;;4985432;28;20225;-67
2022/06/25 06:50:50;;;;;;;1999.90;999.90;;;21.80;99.90;;;;;;4992066;28;20306;-68
2022/06/25 06:53:15;;;;;;;1999.90;999.90;;;22.00;99.90;;;;;;5014382;28;20199;-68
2022/06/25 06:55:41;;;;;;;1999.90;999.90;;;22.10;99.90;;;;;;4990800;28;20185;-68
2022/06/25 06:58:07;;;;;;;1999.90;999.90;;;22.10;99.90;;;;;;5013376;28;20672;-67
2022/06/25 07:00:32;;;;;;;1999.90;999.90;;;22.10;99.90;;;;;;4980141;28;20517;-66
2022/06/25 07:02:58;;;;;;;1145.50;637.35;;;21.90;99.90;;;;;;5012454;28;20199;-67
2022/06/25 07:05:23;;;;;;;1999.90;999.90;;;22.10;99.90;;;;;;4967627;28;20290;-69
2022/06/25 07:07:49;;;;;;;1999.90;999.90;;;22.10;99.90;;;;;;4965224;28;20243;-70
2022/06/25 07:10:16;;;;;;;1608.50;845.33;;;21.90;99.90;;;;;;4981715;28;20659;-70
2022/06/25 07:12:41;;;;;;;1311.75;701.30;;;21.80;99.90;;;;;;4996943;28;20193;-69
2022/06/25 07:15:08;;;;;;;1631.18;860.50;;;21.80;99.90;;;;;;4979704;28;20279;-70
2022/06/25 07:17:33;;;;;;;1999.90;999.90;;;22.10;99.90;;;;;;4973452;28;20199;-68
2022/06/25 07:19:59;;;;;;;1999.90;999.90;;;22.20;99.90;;;;;;4990752;28;20707;-69
2022/06/25 07:22:25;;;;;;;1999.90;999.90;;;22.60;99.90;;;;;;4992868;28;20546;-70
2022/06/25 07:24:51;;;;;;;1811.13;999.90;;;23.50;99.90;;;;;;4980351;28;20195;-70
2022/06/25 07:27:18;;;;;;;1997.55;999.90;;;24.20;99.90;;;;;;4993931;28;20226;-69
2022/06/25 07:29:44;;;;;;;1953.78;999.90;;;24.00;99.90;;;;;;5007587;28;20219;-69
2022/06/25 07:32:10;;;;;;;1966.47;999.90;;;23.90;99.90;;;;;;5011234;28;20184;-70
2022/06/25 07:34:36;;;;;;;1969.97;999.90;;;24.10;99.90;;;;;;5006882;28;20191;-71
2022/06/25 07:37:02;;;;;;;1999.90;999.90;;;25.10;99.90;;;;;;4985971;28;20552;-71
2022/06/25 07:39:28;;;;;;;1999.90;999.90;;;25.70;99.90;;;;;;5010405;28;20211;-72
2022/06/25 07:41:53;;;;;;;1981.78;999.90;;;25.90;99.90;;;;;;4976160;28;20231;-72
2022/06/25 07:44:20;;;;;;;1999.90;999.90;;;25.70;99.90;;;;;;4983892;28;20242;-71
2022/06/25 07:46:45;;;;;;;1970.60;999.90;;;25.20;99.90;;;;;;4977140;28;20188;-73
2022/06/25 07:49:11;;;;;;;1983.10;999.90;;;24.70;99.90;;;;;;4989676;28;20646;-71
2022/06/25 07:54:22;;;;;;;1999.90;999.90;;;24.10;99.90;;;;;;5014006;28;20191;-72
2022/06/25 07:56:48;;;;;;;1999.90;999.90;;;24.00;99.90;;;;;;4986863;28;20215;-75
2022/06/25 07:59:14;;;;;;;1999.90;999.90;;;23.80;99.90;;;;;;4986506;28;20223;-70
2022/06/25 08:01:39;;;;;;;1999.90;999.90;;;24.00;99.90;;;;;;5011409;28;20226;-70
2022/06/25 08:04:05;;;;;;;1999.90;999.90;;;24.50;99.90;;;;;;4992260;28;20188;-72
2022/06/25 08:06:34;;;;;;;1988.40;999.90;;;25.60;99.90;;;;;;4986120;28;20276;-74
2022/06/25 08:09:00;;;;;;;1957.32;999.90;;;25.50;99.90;;;;;;4990775;28;20209;-70
2022/06/25 08:11:26;;;;;;;1999.90;999.90;;;25.00;99.90;;;;;;4991122;28;20194;-72
2022/06/25 08:13:51;;;;;;;1999.90;999.90;;;24.40;99.90;;;;;;4999539;28;20199;-72
2022/06/25 08:16:17;;;;;;;1999.90;999.90;;;24.00;99.90;;;;;;4984580;28;20319;-70
2022/06/25 08:18:42;;;;;;;1999.90;999.90;;;23.70;99.90;;;;;;4993941;28;20191;-73
2022/06/25 08:21:08;;;;;;;1999.90;999.90;;;23.50;99.90;;;;;;4985792;28;20195;-71
2022/06/25 08:23:34;;;;;;;1982.85;999.90;;;23.40;99.90;;;;;;5007364;28;20191;-70
2022/06/25 08:26:00;;;;;;;1999.90;999.90;;;23.40;99.90;;;;;;4986772;28;20302;-69
2022/06/25 08:28:25;;;;;;;1954.93;999.90;;;23.60;99.90;;;;;;5008830;28;20579;-70
2022/06/25 08:30:51;;;;;;;1845.90;999.90;;;23.50;99.90;;;;;;4970517;28;20273;-70
2022/06/25 08:33:17;;;;;;;1888.47;999.90;;;23.60;99.90;;;;;;5012642;28;20183;-70
2022/06/25 08:35:42;;;;;;;1999.90;999.90;;;24.10;99.90;;;;;;4982226;28;20196;-70
2022/06/25 08:38:08;;;;;;;1999.90;999.90;;;24.90;99.90;;;;;;4992935;28;20644;-70
2022/06/25 08:40:34;;;;;;;1996.45;999.90;;;25.80;99.90;;;;;;5008261;28;20215;-70
2022/06/25 08:43:00;;;;;;;1919.28;999.90;;;26.70;99.90;;;;;;4992270;28;20205;-71
2022/06/25 08:45:26;;;;;;;1871.50;999.90;;;26.80;99.90;;;;;;4997525;28;20184;-71
2022/06/25 08:47:53;;;;;;;1885.20;999.90;;;26.20;99.90;;;;;;4994268;28;20622;-70
2022/06/25 08:50:23;;;;;;;1879.95;999.90;;;25.50;99.90;;;;;;4981316;28;20234;-71
2022/06/25 08:52:52;;;;;;;1918.93;999.90;;;25.10;99.90;;;;;;5007827;28;20187;-77
2022/06/25 08:55:33;;;;;;;1932.05;999.90;;;24.80;99.90;;;;;;4995351;28;20263;-73
2022/06/25 08:58:00;;;;;;;1956.70;999.90;;;24.50;99.90;;;;;;4996114;28;20640;-73
2022/06/25 09:00:31;;;;;;;1986.85;999.90;;;24.30;99.90;;;;;;4987357;28;20628;-72
2022/06/25 09:02:57;;;;;;;1986.78;999.90;;;24.20;99.90;;;;;;4992991;28;20188;-72
2022/06/25 09:05:28;;;;;;;1996.95;999.90;;;24.20;99.90;;;;;;4978184;28;20446;-74
2022/06/25 09:07:58;;;;;;;1999.90;999.90;;;24.50;99.90;;;;;;5011156;28;20209;-73
2022/06/25 09:10:25;;;;;;;1998.35;999.90;;;24.70;99.90;;;;;;4993355;28;20199;-73
2022/06/25 09:12:52;;;;;;;1949.07;999.90;;;25.20;99.90;;;;;;5012026;28;20275;-73
2022/06/25 09:15:21;;;;;;;1908.97;999.90;;;25.30;99.90;;;;;;4996183;28;20555;-74
2022/06/25 09:17:48;;;;;;;1874.68;999.90;;;25.40;99.90;;;;;;4974798;28;20191;-75
2022/06/25 09:20:13;;;;;;;1838.20;999.90;;;25.50;99.90;;;;;;4997237;28;20180;-72
2022/06/25 09:22:39;;;;;;;1836.03;999.90;;;25.70;99.90;;;;;;5020394;28;20198;-74
2022/06/25 09:25:05;;;;;;;1811.82;999.90;;;25.80;99.90;;;;;;5001782;28;20193;-73
2022/06/25 09:27:35;;;;;;;1786.90;999.90;;;25.90;99.90;;;;;;4981522;28;20215;-74
2022/06/25 09:30:12;;;;;;;1781.63;999.90;;;25.70;99.90;;;;;;5005423;28;20178;-75
2022/06/25 09:33:02;;;;;;;1709.93;999.90;;;25.60;99.90;;;;;;5012376;28;20175;-73
2022/06/25 09:35:38;;;;;;;1687.20;999.90;;;25.50;99.90;;;;;;4971108;28;20566;-74
2022/06/25 09:38:12;;;;;;;1696.10;999.90;;;25.30;99.90;;;;;;4997083;28;20190;-74
2022/06/25 09:40:39;;;;;;;1689.72;999.90;;;25.10;99.90;;;;;;4986981;28;20188;-74
2022/06/25 09:43:18;;;;;;;1702.03;999.90;;;25.10;99.90;;;;;;5008993;28;20175;-74
2022/06/25 09:45:47;;;;;;;1691.35;999.90;;;25.20;99.90;;;;;;4998322;28;20643;-74
2022/06/25 09:48:24;;;;;;;1694.72;999.90;;;25.20;99.90;;;;;;5008170;28;20273;-74
2022/06/25 09:51:33;;;;;;;1716.55;999.90;;;25.30;99.90;;;;;;4983468;28;20294;-74
2022/06/25 09:54:03;;;;;;;1668.18;999.90;;;25.70;99.90;;;;;;4994270;28;20222;-70
2022/06/25 09:56:31;;;;;;;1674.82;999.90;;;26.40;99.90;;;;;;5012226;28;20191;-68
2022/06/25 09:58:58;;;;;;;1658.13;999.90;;;27.10;99.90;;;;;;4997486;28;20190;-73
2022/06/25 10:01:29;;;;;;;1665.00;999.90;;;27.30;99.90;;;;;;4990327;28;20184;-70
2022/06/25 10:03:55;;;;;;;1636.93;999.90;;;27.20;99.90;;;;;;5012717;28;20190;-69
2022/06/25 10:06:23;;;;;;;1604.53;999.90;;;27.30;99.90;;;;;;4990448;28;20270;-68
2022/06/25 10:08:50;;;;;;;1596.80;999.90;;;27.40;99.90;;;;;;5014537;28;20317;-73
2022/06/25 10:11:25;;;;;;;1546.75;999.90;;;27.40;99.90;;;;;;5015075;28;20179;-69
2022/06/25 10:13:51;;;;;;;1539.10;999.90;;;27.50;99.90;;;;;;5009282;28;21021;-69
2022/06/25 10:16:19;;;;;;;1545.25;999.90;;;27.70;99.90;;;;;;4996971;28;20658;-67
2022/06/25 10:18:45;;;;;;;1490.47;999.90;;;27.70;99.90;;;;;;5015116;28;20190;-70
2022/06/25 10:21:14;;;;;;;1460.05;999.90;;;27.70;99.90;;;;;;5010965;28;20190;-70
2022/06/25 10:23:42;;;;;;;1402.82;999.90;;;27.50;99.90;;;;;;5014044;28;20190;-70
2022/06/25 10:26:09;;;;;;;1382.45;999.90;;;27.50;99.90;;;;;;4989496;28;20184;-69
2022/06/25 10:28:36;;;;;;;1389.53;999.90;;;27.10;99.90;;;;;;5002314;28;20206;-69
2022/06/25 10:31:12;;;;;;;1380.93;999.90;;;26.80;99.90;;;;;;5010488;28;20199;-69
2022/06/25 10:34:03;;;;;;;1377.05;999.90;;;26.70;99.90;;;;;;5018254;28;20653;-69
2022/06/25 10:36:43;;;;;;;1385.97;999.90;;;26.70;99.90;;;;;;5005315;28;20182;-70
2022/06/25 10:39:41;;;;;;;1381.57;999.90;;;26.40;99.90;;;;;;4998637;28;20245;-71
2022/06/25 10:45:07;;;;;;;1452.47;999.90;;;26.00;99.90;;;;;;5018394;28;20266;-70
2022/06/25 10:47:43;;;;;;;1537.97;999.90;;;25.90;99.90;;;;;;5004726;28;20215;-70
2022/06/25 10:50:20;;;;;;;1507.32;999.90;;;25.50;99.90;;;;;;5000986;28;20229;-69
2022/06/25 10:53:10;;;;;;;1515.25;999.90;;;25.20;99.90;;;;;;5011166;28;20195;-69
2022/06/25 10:55:39;;;;;;;1548.35;999.90;;;25.20;99.90;;;;;;5002962;28;20187;-69
2022/06/25 10:58:47;;;;;;;1564.15;999.90;;;25.30;99.90;;;;;;5013930;28;20183;-69
2022/06/25 11:01:26;;;;;;;1574.72;999.90;;;25.70;99.90;;;;;;4988623;28;20210;-69
2022/06/25 11:03:58;;;;;;;1553.88;999.90;;;26.20;99.90;;;;;;5001775;28;21023;-70
2022/06/25 11:06:35;;;;;;;1575.60;999.90;;;26.50;99.90;;;;;;5014458;28;20191;-69
2022/06/25 11:09:15;;;;;;;1523.07;999.90;;;26.70;99.90;;;;;;5005506;28;20222;-69
2022/06/25 11:11:43;;;;;;;1531.28;999.90;;;26.60;99.90;;;;;;5006478;28;20187;-69
2022/06/25 11:14:21;;;;;;;1517.07;999.90;;;26.50;99.90;;;;;;5014619;28;20183;-69
2022/06/25 11:16:48;;;;;;;1554.00;999.90;;;26.20;99.90;;;;;;4995050;28;20190;-70
2022/06/25 11:19:14;;;;;;;1575.85;999.90;;;26.00;99.90;;;;;;5002727;28;20234;-70
2022/06/25 11:21:42;;;;;;;1617.70;999.90;;;25.90;99.90;;;;;;5016615;28;20183;-70
2022/06/25 11:24:21;;;;;;;1641.95;999.90;;;25.90;99.90;;;;;;5018764;28;20218;-69
2022/06/25 11:29:49;;;;;;;1716.35;999.90;;;25.80;99.90;;;;;;5000536;28;20211;-69
2022/06/25 11:32:24;;;;;;;1752.55;999.90;;;25.70;99.90;;;;;;5007804;28;20213;-69
2022/06/25 11:34:58;;;;;;;1746.47;999.90;;;25.60;99.90;;;;;;4991770;28;20579;-69
2022/06/25 11:37:24;;;;;;;1744.28;999.90;;;25.60;99.90;;;;;;5014540;28;20195;-69
2022/06/25 11:39:50;;;;;;;1684.43;999.90;;;25.80;99.90;;;;;;5005538;28;20544;-69
2022/06/25 11:42:17;;;;;;;1689.32;999.90;;;25.80;99.90;;;;;;4995461;28;20214;-70
2022/06/25 11:44:51;;;;;;;1656.45;999.90;;;26.00;99.90;;;;;;4994216;28;20613;-70
2022/06/25 11:47:22;;;;;;;1643.75;999.90;;;26.40;99.90;;;;;;4991298;28;20230;-70
2022/06/25 11:49:49;;;;;;;1626.53;999.90;;;26.40;99.90;;;;;;5008317;28;20182;-70
2022/06/25 11:52:17;;;;;;;1643.25;999.90;;;26.40;99.90;;;;;;5012973;28;20590;-70
2022/06/25 11:54:44;;;;;;;1619.78;999.90;;;26.30;99.90;;;;;;4996376;28;20196;-70
2022/06/25 11:57:19;;;;;;;1618.60;999.90;;;26.40;99.90;;;;;;5002947;28;20210;-70
2022/06/25 11:59:49;;;;;;;1567.70;999.90;;;26.50;99.90;;;;;;5002682;28;20295;-68
2022/06/25 12:02:15;;;;;;;1574.53;999.90;;;26.40;99.90;;;;;;4992997;28;20273;-70
2022/06/25 12:04:55;;;;;;;1582.47;999.90;;;26.30;99.90;;;;;;5088828;27;1261688;-77
2022/06/25 12:07:29;;;;;;;1526.53;999.90;;;26.30;99.90;;;;;;5093165;28;20184;-69
2022/06/25 12:10:13;;;;;;;1516.22;999.90;;;26.30;99.90;;;;;;5102859;28;20262;-71
2022/06/25 12:12:40;;;;;;;1531.80;999.90;;;26.40;99.90;;;;;;5079720;28;20221;-70
2022/06/25 12:15:11;;;;;;;1564.22;999.90;;;26.40;99.90;;;;;;5103805;28;20661;-70
2022/06/25 12:17:38;;;;;;;1608.45;999.90;;;25.90;99.90;;;;;;5090986;28;20260;-67
2022/06/25 12:20:14;;;;;;;1672.72;999.90;;;25.70;99.90;;;;;;5103299;28;20180;-72